Latest Weather Observations for Moruya Airport

IDN60901

Issued at 4:05 am EDT Friday 24 October 2014 (issued every 10 minutes, with the page automatically refreshed every 10 minutes)

About weather observations | Map of Canberra area stations | Latest observations for Canberra area | Other Formats
Station Details ID: 069148 Name: MORUYA AIRPORT AWS Lat: -35.90 Lon: 150.14 Height: 4.0 m
Data from the previous 72 hours. | See also: Recent months for locations in Aust Capital Territory
Date/Time
EDT
Tmp

°C
App
Tmp
°C
Dew
Point
°C
Rel
Hum
%
Delta-T

°C
Wind Press
QNH
hPa
Press
MSL
hPa
Rain
since
9 am
mm
Dir
 
Spd
km/h
Gust
km/h
Spd
kts
Gust
kts
24/04:00am 15.7 17.6 15.7 100 0.0 NNE 0 0 0 0 1018.0 1018.0 0.4
24/03:42am 15.7 17.6 15.7 100 0.0 CALM 0 0 0 0 1018.5 1018.5 0.4
24/03:30am 15.9 17.9 15.9 100 0.0 CALM 0 0 0 0 1018.5 1018.5 0.4
24/03:00am 16.5 18.3 16.5 100 0.0 W 2 9 1 5 1019.0 1019.0 0.4
24/02:30am 16.5 17.4 16.5 100 0.0 WSW 7 11 4 6 1019.5 1019.5 0.2
24/02:00am 16.7 18.6 16.7 100 0.0 NW 2 7 1 4 1018.9 1018.9 0.2
24/01:30am 17.4 18.6 17.4 100 0.0 N 7 13 4 7 1019.1 1019.1 0.2
24/01:00am 17.8 18.4 17.8 100 0.0 SE 11 15 6 8 1019.1 1019.1 0.2
24/12:30am 17.7 19.2 17.7 100 0.0 NNE 6 11 3 6 1019.0 1019.0 0.2
24/12:00am 18.0 20.3 17.8 99 0.1 N 2 7 1 4 1019.1 1019.1 0.2
 
Date/Time
EDT
Tmp

°C
App
Tmp
°C
Dew
Point
°C
Rel
Hum
%
Delta-T

°C
Wind Press
QNH
hPa
Press
MSL
hPa
Rain
since
9 am
mm
Dir
 
Spd
km/h
Gust
km/h
Spd
kts
Gust
kts
23/11:30pm 18.4 20.2 18.2 99 0.1 NNW 6 9 3 5 1019.3 1019.3 0.2
23/11:00pm 18.6 18.7 18.4 99 0.1 NW 15 20 8 11 1019.5 1019.5 0.2
23/10:30pm 17.8 16.7 17.8 100 0.0 N 20 28 11 15 1018.4 1018.4 0.2
23/10:28pm 17.8 16.7 17.8 100 0.0 N 20 28 11 15 1018.6 1018.6 0.2
23/10:05pm 18.2 18.2 18.2 100 0.0 WNW 15 20 8 11 1020.7 1020.7 0.2
23/10:00pm 18.3 16.7 18.3 100 0.0 NE 24 35 13 19 1018.7 1018.7 0.2
23/09:57pm 18.3 17.1 18.3 100 0.0 NE 22 28 12 15 1018.9 1018.9 0.2
23/09:30pm 19.0 20.4 17.8 93 0.7 SE 7 13 4 7 1021.0 1021.0 0.0
23/09:00pm 18.9 19.9 17.7 93 0.7 S 9 13 5 7 1021.3 1021.3 0.0
23/08:30pm 18.7 20.1 17.7 94 0.6 SW 7 9 4 5 1020.7 1020.7 0.0
23/08:00pm 18.4 19.5 18.1 98 0.2 WSW 9 13 5 7 1019.7 1019.7 0.0
23/07:30pm 18.6 20.6 17.9 96 0.4 W 4 7 2 4 1018.9 1018.9 0.0
23/07:00pm 19.1 19.8 17.9 93 0.7 ESE 11 15 6 8 1018.3 1018.3 0.0
23/06:30pm 19.9 21.4 18.0 89 1.2 SE 7 11 4 6 1018.8 1018.8 0.0
23/06:00pm 20.2 21.7 18.0 87 1.4 S 7 11 4 6 1018.9 1018.9 0.0
23/05:30pm 20.0 21.1 18.8 93 0.8 SSE 11 17 6 9 1018.4 1018.4 0.0
23/05:00pm 20.2 20.8 18.7 91 0.9 ESE 13 15 7 8 1018.0 1018.0 0.0
23/04:30pm 21.0 22.2 18.2 84 1.7 ESE 9 13 5 7 1018.0 1018.0 0.0
23/04:00pm 21.5 22.6 18.9 85 1.6 ESE 11 15 6 8 1017.7 1017.7 0.0
23/03:30pm 21.7 21.8 17.5 77 2.6 E 13 15 7 8 1017.7 1017.7 0.0
23/03:00pm 22.4 23.3 18.4 78 2.5 ESE 11 17 6 9 1017.4 1017.4 0.0
23/02:30pm 22.2 22.7 18.4 79 2.4 ESE 13 19 7 10 1017.2 1017.2 0.0
23/02:00pm 22.0 22.3 17.8 77 2.6 ESE 13 17 7 9 1017.6 1017.6 0.0
23/01:30pm 22.2 22.8 18.6 80 2.3 E 13 17 7 9 1017.7 1017.7 0.0
23/01:00pm 21.0 21.4 18.2 84 1.7 E 13 17 7 9 1017.6 1017.6 0.0
23/12:30pm 20.8 21.1 17.8 83 1.9 ENE 13 15 7 8 1017.6 1017.6 0.0
23/12:00pm 21.0 20.9 16.0 73 3.0 ENE 11 13 6 7 1017.7 1017.7 0.0
23/11:30am 20.6 20.6 16.2 76 2.6 ENE 11 13 6 7 1017.8 1017.8 0.0
23/11:00am 20.2 20.4 15.8 76 2.6 ENE 9 13 5 7 1017.9 1017.9 0.0
23/10:30am 20.8 21.0 15.8 73 3.0 E 9 11 5 6 1018.0 1018.0 0.0
23/10:00am 20.2 20.6 16.2 78 2.4 E 9 11 5 6 1018.0 1018.0 0.0
23/09:30am 19.7 20.3 15.8 78 2.3 NE 7 11 4 6 1017.8 1017.8 0.0
23/09:00am 18.8 20.0 16.0 84 1.7 NNE 4 7 2 4 1017.7 1017.7 0.0
23/08:30am 18.2 19.7 16.7 91 0.9 SSW 4 7 2 4 1017.6 1017.6 0.0
23/08:00am 16.3 17.1 16.3 100 0.0 SSW 7 11 4 6 1017.7 1017.7 0.0
23/07:30am 15.2 16.5 15.2 100 0.0 WSW 2 9 1 5 1017.6 1017.6 0.0
23/07:00am 13.1 13.7 13.1 100 0.0 NW 2 6 1 3 1017.5 1017.5 0.0
23/06:30am 12.1 12.4 12.1 100 0.0 SW 2 6 1 3 1017.3 1017.3 0.0
23/06:00am 12.1 12.0 12.1 100 0.0 W 4 11 2 6 1017.1 1017.1 0.0
23/05:30am 11.9 12.5 11.9 100 0.0 CALM 0 0 0 0 1016.3 1016.3 0.0
23/05:04am 11.6 12.1 11.6 100 0.0 CALM 0 0 0 0 1016.2 1016.2 0.0
23/05:00am 11.7 12.2 11.7 100 0.0 CALM 0 0 0 0 1016.2 1016.2 0.0
23/04:45am 11.5 12.0 11.5 100 0.0 CALM 0 0 0 0 1016.1 1016.1 0.0
23/04:30am 11.7 12.2 11.7 100 0.0 CALM 0 0 0 0 1016.1 1016.1 0.0
23/04:00am 11.9 12.5 11.9 100 0.0 CALM 0 0 0 0 1016.0 1016.0 0.0
23/03:30am 11.9 12.1 11.9 100 0.0 SW 2 6 1 3 1016.2 1016.2 0.0
23/03:03am 11.6 11.3 11.6 100 0.0 NNW 4 7 2 4 1016.2 1016.2 0.0
23/03:00am 11.6 11.7 11.6 100 0.0 NW 2 7 1 4 1016.2 1016.2 0.0
23/02:30am 11.9 12.5 11.9 100 0.0 CALM 0 0 0 0 1017.0 1017.0 0.0
23/02:06am 12.4 13.2 12.4 100 0.0 CALM 0 0 0 0 1017.3 1017.3 0.0
23/02:00am 12.4 13.2 12.4 100 0.0 CALM 0 0 0 0 1017.4 1017.4 0.0
23/01:30am 12.6 13.4 12.6 100 0.0 CALM 0 0 0 0 1017.6 1017.6 0.0
23/01:00am 12.7 13.5 12.7 100 0.0 CALM 0 6 0 3 1018.1 1018.1 0.0
23/12:30am 12.6 13.4 12.6 100 0.0 CALM 0 0 0 0 1018.5 1018.5 0.0
23/12:00am 13.0 13.9 13.0 100 0.0 CALM 0 4 0 2 1018.6 1018.6 0.0
 
Date/Time
EDT
Tmp

°C
App
Tmp
°C
Dew
Point
°C
Rel
Hum
%
Delta-T

°C
Wind Press
QNH
hPa
Press
MSL
hPa
Rain
since
9 am
mm
Dir
 
Spd
km/h
Gust
km/h
Spd
kts
Gust
kts
22/11:30pm 13.2 12.9 13.2 100 0.0 W 7 9 4 5 1018.8 1018.8 0.0
22/11:00pm 13.3 13.0 13.3 100 0.0 WNW 7 9 4 5 1019.0 1019.0 0.0
22/10:30pm 13.5 14.6 13.5 100 0.0 CALM 0 0 0 0 1019.1 1019.1 0.0
22/10:00pm 13.5 13.5 13.5 100 0.0 W 6 9 3 5 1019.2 1019.2 0.0
22/09:30pm 14.2 14.3 14.0 99 0.1 WNW 6 7 3 4 1018.9 1018.9 0.0
22/09:00pm 14.4 15.3 13.9 97 0.3 WSW 2 7 1 4 1019.1 1019.1 0.0
22/08:30pm 15.1 16.4 14.1 94 0.6 CALM 0 0 0 0 1019.0 1019.0 0.0
22/08:00pm 16.0 17.3 14.0 88 1.1 CALM 0 2 0 1 1018.8 1018.8 0.0
22/07:30pm 17.3 17.5 14.6 84 1.6 N 7 9 4 5 1018.5 1018.5 0.0
22/07:00pm 18.4 16.3 15.3 82 1.8 NNE 20 24 11 13 1018.3 1018.3 0.0
22/06:30pm 19.0 17.0 15.5 80 2.1 NNE 20 26 11 14 1018.3 1018.3 0.0
22/06:00pm 19.2 16.5 15.5 79 2.2 NNE 24 30 13 16 1018.3 1018.3 0.0
22/05:30pm 19.3 16.4 15.0 76 2.5 NNE 24 30 13 16 1018.4 1018.4 0.0
22/05:00pm 20.0 17.4 14.8 72 3.0 NNE 22 30 12 16 1018.6 1018.6 0.0
22/04:30pm 20.1 16.6 14.5 70 3.3 NNE 26 32 14 17 1018.5 1018.5 0.0
22/04:00pm 20.5 16.5 14.2 67 3.6 NNE 28 35 15 19 1018.8 1018.8 0.0
22/03:30pm 20.6 17.0 14.3 67 3.7 NNE 26 35 14 19 1019.1 1019.1 0.0
22/03:00pm 20.5 16.3 13.5 64 4.0 NNE 28 39 15 21 1019.5 1019.5 0.0
22/02:30pm 20.5 16.4 13.7 65 3.9 NE 28 39 15 21 1020.0 1020.0 0.0
22/02:00pm 20.2 15.3 12.7 62 4.2 NE 30 41 16 22 1020.6 1020.6 0.0
22/01:30pm 20.4 16.0 12.9 62 4.3 NE 28 35 15 19 1021.1 1021.1 0.0
22/01:00pm 20.0 15.3 12.0 60 4.4 NE 28 41 15 22 1021.7 1021.7 0.0
22/12:30pm 20.1 16.4 12.6 62 4.2 NE 24 33 13 18 1022.2 1022.2 0.0
22/12:00pm 19.3 15.4 12.1 63 4.0 NE 24 32 13 17 1022.8 1022.8 0.0
22/11:30am 19.6 15.5 12.6 64 3.9 NE 26 35 14 19 1023.5 1023.5 0.0
22/11:00am 20.0 16.6 11.2 57 4.8 NNE 20 26 11 14 1024.0 1024.0 0.0
22/10:30am 19.4 16.8 10.7 57 4.7 NNE 15 24 8 13 1024.6 1024.6 0.0
22/10:00am 18.3 15.0 9.4 56 4.6 N 17 22 9 12 1025.1 1025.1 0.0
22/09:30am 17.8 14.4 9.2 57 4.5 N 17 26 9 14 1025.1 1025.1 0.0
22/09:00am 17.0 13.4 9.9 63 3.7 N 19 30 10 16 1025.4 1025.4 0.0
22/08:30am 16.2 13.3 10.9 71 2.8 N 17 24 9 13 1025.6 1025.6 0.0
22/08:00am 15.0 12.8 10.8 76 2.2 N 13 17 7 9 1025.9 1025.9 0.0
22/07:30am 13.8 12.0 10.8 82 1.6 N 11 20 6 11 1026.0 1026.0 0.0
22/07:00am 12.5 10.8 11.2 92 0.7 NNW 11 15 6 8 1026.0 1026.0 0.0
22/06:30am 10.9 8.9 10.3 96 0.3 NNW 11 15 6 8 1026.1 1026.1 0.0
22/06:00am 10.7 9.3 9.5 92 0.6 NNW 7 11 4 6 1026.2 1026.2 0.0
22/05:30am 12.7 10.8 10.4 86 1.2 NNW 11 15 6 8 1026.2 1026.2 0.0
22/05:00am 13.2 11.3 10.6 84 1.3 NNW 11 15 6 8 1026.3 1026.3 0.0
22/04:30am 13.2 11.4 10.7 85 1.3 NNW 11 13 6 7 1026.4 1026.4 0.0
22/04:00am 12.9 11.6 11.1 89 0.9 NNW 9 11 5 6 1026.6 1026.6 0.0
22/03:30am 12.6 11.6 11.0 90 0.8 NNW 7 9 4 5 1027.1 1027.1 0.0
22/03:00am 12.7 11.8 10.8 88 1.0 NNW 6 7 3 4 1027.3 1027.3 0.0
22/02:30am 13.3 12.4 10.8 85 1.3 NNW 6 9 3 5 1027.9 1027.9 0.0
22/02:00am 13.7 12.6 10.7 82 1.6 NNW 7 11 4 6 1028.4 1028.4 0.0
22/01:30am 13.8 12.7 10.8 82 1.6 NNW 7 11 4 6 1028.8 1028.8 0.0
22/01:00am 14.1 13.0 10.5 79 1.9 NNW 7 11 4 6 1029.3 1029.3 0.0
22/12:30am 14.2 13.0 10.2 77 2.1 N 7 11 4 6 1029.6 1029.6 0.0
22/12:00am 14.2 13.0 10.4 78 2.0 NNW 7 11 4 6 1030.1 1030.1 0.0
 
Date/Time
EDT
Tmp

°C
App
Tmp
°C
Dew
Point
°C
Rel
Hum
%
Delta-T

°C
Wind Press
QNH
hPa
Press
MSL
hPa
Rain
since
9 am
mm
Dir
 
Spd
km/h
Gust
km/h
Spd
kts
Gust
kts
21/11:30pm 14.3 13.1 10.3 77 2.1 NNW 7 9 4 5 1030.4 1030.4 0.0
21/11:00pm 14.6 13.1 10.4 76 2.2 NNW 9 13 5 7 1030.6 1030.6 0.0
21/10:30pm 14.6 13.1 10.6 77 2.1 NNW 9 13 5 7 1030.7 1030.7 0.0
21/10:00pm 14.6 13.7 10.6 77 2.1 N 6 9 3 5 1030.7 1030.7 0.0
21/09:30pm 14.7 13.6 10.7 77 2.1 NNW 7 9 4 5 1030.8 1030.8 0.0
21/09:00pm 14.9 13.8 10.5 75 2.3 NNW 7 9 4 5 1030.7 1030.7 0.0
21/08:30pm 15.0 13.8 10.4 74 2.4 NNW 7 9 4 5 1030.6 1030.6 0.0
21/08:00pm 15.3 14.0 9.9 70 2.8 N 7 11 4 6 1030.3 1030.3 0.0
21/07:30pm 15.6 13.9 9.7 68 3.1 N 9 11 5 6 1030.0 1030.0 0.0
21/07:00pm 15.9 13.4 9.6 66 3.2 N 13 17 7 9 1029.8 1029.8 0.0
21/06:30pm 16.1 13.2 9.5 65 3.4 N 15 20 8 11 1029.8 1029.8 0.0
21/06:00pm 16.5 12.7 9.9 65 3.4 NNE 20 24 11 13 1029.7 1029.7 0.0
21/05:30pm 17.0 13.0 10.6 66 3.4 NNE 22 28 12 15 1029.6 1029.6 0.0
21/05:00pm 17.0 13.3 10.1 64 3.6 NNE 20 26 11 14 1029.8 1029.8 0.0
21/04:30pm 17.0 13.5 10.8 67 3.3 NE 20 28 11 15 1029.9 1029.9 0.0
21/04:00pm 17.2 14.0 11.2 68 3.2 NE 19 22 10 12 1030.0 1030.0 0.0
21/03:30pm 17.4 14.4 10.8 65 3.5 NE 17 22 9 12 1030.5 1030.5 0.0
21/03:00pm 17.4 14.0 10.5 64 3.7 NE 19 26 10 14 1030.9 1030.9 0.0
21/02:30pm 17.2 13.9 10.8 66 3.4 NE 19 22 10 12 1031.2 1031.2 0.0
21/02:00pm 17.2 13.9 10.8 66 3.4 NE 19 24 10 13 1031.6 1031.6 0.0
21/01:30pm 17.5 14.2 9.4 59 4.2 NE 17 22 9 12 1032.1 1032.1 0.0
21/01:00pm 17.6 15.1 9.8 60 4.1 ENE 13 17 7 9 1032.4 1032.4 0.0
21/12:30pm 16.9 15.1 9.6 62 3.8 ENE 9 13 5 7 1032.7 1032.7 0.0
21/12:00pm 17.2 15.0 9.4 60 4.0 ENE 11 13 6 7 1033.0 1033.0 0.0
21/11:30am 17.0 15.4 8.9 59 4.2 NNE 7 11 4 6 1033.2 1033.2 0.0
21/11:00am 16.0 14.1 9.0 63 3.6 NE 9 13 5 7 1033.5 1033.5 0.0
21/10:30am 16.0 16.1 10.3 69 3.0 CALM 0 6 0 3 1033.5 1033.5 0.0
21/10:00am 15.4 15.1 10.0 70 2.8 W 2 7 1 4 1033.6 1033.6 0.0
21/09:30am 14.7 13.7 11.1 79 1.9 W 7 11 4 6 1033.5 1033.5 0.0
21/09:00am 14.0 13.2 11.7 86 1.2 WNW 7 13 4 7 1033.3 1033.3 0.2
21/08:30am 13.4 12.5 11.5 88 1.0 S 7 13 4 7 1033.2 1033.2 0.2
21/08:00am 12.8 12.1 11.5 92 0.7 WNW 6 9 3 5 1032.9 1032.9 0.2
21/07:30am 12.2 11.4 11.6 96 0.3 W 7 11 4 6 1032.7 1032.7 0.2
21/07:00am 11.8 10.9 11.3 97 0.3 W 7 13 4 7 1032.4 1032.4 0.2
21/06:30am 11.6 11.6 11.3 98 0.2 W 2 9 1 5 1032.3 1032.3 0.2
21/06:00am 11.6 10.9 11.3 98 0.2 WSW 6 9 3 5 1032.1 1032.1 0.2
21/05:30am 11.5 10.2 11.2 98 0.2 W 9 13 5 7 1032.0 1032.0 0.2
21/05:00am 11.5 10.2 11.3 99 0.1 WSW 9 13 5 7 1032.0 1032.0 0.2
21/04:30am 11.5 10.6 11.2 98 0.2 W 7 9 4 5 1032.1 1032.1 0.2

Latest Capital City Observations: Canberra | Sydney | Melbourne | Brisbane | Adelaide | Perth | Hobart | Darwin

Other Formats:

Comma delimited format used in spreadsheet applications
http://www.bom.gov.au/fwo/IDN60903/IDN60903.95937.axf

JavaScript Object Notation format (JSON) in row-major order
http://www.bom.gov.au/fwo/IDN60903/IDN60903.95937.json